createdAt,value
2023-05-15T00:01:44.372Z,21.30
2023-05-15T00:04:15.150Z,21.20
2023-05-15T00:06:46.553Z,21.00
2023-05-15T00:09:22.045Z,20.90
2023-05-15T00:11:52.916Z,21.00
2023-05-15T00:14:24.572Z,21.00
2023-05-15T00:16:52.459Z,21.10
2023-05-15T00:19:22.693Z,21.40
2023-05-15T00:21:50.546Z,21.50
2023-05-15T00:24:22.811Z,21.60
2023-05-15T00:26:50.675Z,21.60
2023-05-15T00:29:23.636Z,21.60
2023-05-15T00:31:51.642Z,21.70
2023-05-15T00:34:19.627Z,21.70
2023-05-15T00:36:47.543Z,21.60
2023-05-15T00:39:15.780Z,21.60
2023-05-15T00:41:48.275Z,21.70
2023-05-15T00:44:19.082Z,21.60
2023-05-15T00:46:49.656Z,21.60
2023-05-15T00:49:20.914Z,21.50
2023-05-15T00:51:51.858Z,21.50
2023-05-15T00:54:26.446Z,21.30
2023-05-15T00:56:57.890Z,21.30
2023-05-15T00:59:28.418Z,21.20
2023-05-15T01:01:57.762Z,21.10
2023-05-15T01:04:31.527Z,20.80
2023-05-15T01:07:00.277Z,20.50
2023-05-15T01:09:37.206Z,20.60
2023-05-15T01:12:08.680Z,20.70
2023-05-15T01:14:44.172Z,20.70
2023-05-15T01:17:13.465Z,20.90
2023-05-15T01:19:45.704Z,20.90
2023-05-15T01:22:31.604Z,20.90
2023-05-15T01:25:27.563Z,20.80
2023-05-15T01:28:02.791Z,20.30
2023-05-15T01:30:33.832Z,20.10
2023-05-15T01:33:07.603Z,19.80
2023-05-15T01:35:42.241Z,19.90
2023-05-15T01:38:25.404Z,20.00
2023-05-15T01:41:02.976Z,20.10
2023-05-15T01:43:35.934Z,20.10
2023-05-15T01:46:04.893Z,20.00
2023-05-15T01:48:36.356Z,20.00
2023-05-15T01:51:07.499Z,20.00
2023-05-15T01:53:36.724Z,20.10
2023-05-15T01:56:08.090Z,20.00
2023-05-15T01:58:38.901Z,19.90
2023-05-15T02:01:07.669Z,19.70
2023-05-15T02:03:38.868Z,19.70
2023-05-15T02:06:08.447Z,19.70
2023-05-15T02:08:43.706Z,19.70
2023-05-15T02:11:11.777Z,19.60
2023-05-15T02:13:46.169Z,19.60
2023-05-15T02:16:21.407Z,19.60
2023-05-15T02:18:49.607Z,19.60
2023-05-15T02:21:17.598Z,19.70
2023-05-15T02:23:51.665Z,19.70
2023-05-15T02:29:39.322Z,19.40
2023-05-15T02:32:14.208Z,19.10
2023-05-15T02:34:53.478Z,18.60
2023-05-15T02:37:30.472Z,18.40
2023-05-15T02:40:02.016Z,18.70
2023-05-15T02:42:32.144Z,18.90
2023-05-15T02:45:04.472Z,19.10
2023-05-15T02:47:42.062Z,19.00
2023-05-15T02:50:15.933Z,19.00
2023-05-15T02:52:46.586Z,18.80
2023-05-15T02:55:14.455Z,18.60
2023-05-15T02:57:42.349Z,18.50
2023-05-15T03:00:16.025Z,18.60
2023-05-15T03:02:43.987Z,18.80
2023-05-15T03:05:11.933Z,18.90
2023-05-15T03:07:41.264Z,19.10
2023-05-15T03:10:09.811Z,19.00
2023-05-15T03:12:38.682Z,19.10
2023-05-15T03:15:15.938Z,19.30
2023-05-15T03:17:46.618Z,19.30
2023-05-15T03:20:15.036Z,19.30
2023-05-15T03:22:43.036Z,19.40
2023-05-15T03:25:11.693Z,19.40
2023-05-15T03:27:42.361Z,19.50
2023-05-15T03:30:14.946Z,19.60
2023-05-15T03:32:42.891Z,19.60
2023-05-15T03:35:14.013Z,19.50
2023-05-15T03:37:44.330Z,19.60
2023-05-15T03:40:15.535Z,19.60
2023-05-15T03:42:43.424Z,19.60
2023-05-15T03:45:19.214Z,19.60
2023-05-15T03:47:48.307Z,19.60
2023-05-15T03:50:20.201Z,19.60
2023-05-15T03:52:53.450Z,19.70
2023-05-15T03:55:30.071Z,19.70
2023-05-15T03:57:58.688Z,19.70
2023-05-15T04:00:28.012Z,19.60
2023-05-15T04:02:58.751Z,19.60
2023-05-15T04:05:29.585Z,19.60
2023-05-15T04:07:57.462Z,19.70
2023-05-15T04:10:25.532Z,19.80
2023-05-15T04:12:56.383Z,19.90
2023-05-15T04:15:28.628Z,19.90
2023-05-15T04:18:08.788Z,19.80
2023-05-15T04:20:36.658Z,19.90
2023-05-15T04:23:07.548Z,20.00
2023-05-15T04:25:35.640Z,20.00
2023-05-15T04:28:03.502Z,19.90
2023-05-15T04:30:32.708Z,19.80
2023-05-15T04:33:02.771Z,19.90
2023-05-15T04:35:30.810Z,19.80
2023-05-15T04:38:01.837Z,19.80
2023-05-15T04:40:29.788Z,19.70
2023-05-15T04:43:00.660Z,19.60
2023-05-15T04:45:32.661Z,19.70
2023-05-15T04:48:03.525Z,19.60
2023-05-15T04:50:31.535Z,19.60
2023-05-15T04:52:59.427Z,19.60
2023-05-15T04:55:30.398Z,19.50
2023-05-15T04:57:59.495Z,19.30
2023-05-15T05:00:28.200Z,19.40
2023-05-15T05:02:57.471Z,19.30
2023-05-15T05:05:26.228Z,19.40
2023-05-15T05:07:54.246Z,19.40
2023-05-15T05:10:22.197Z,19.40
2023-05-15T05:12:50.099Z,19.50
2023-05-15T05:15:18.017Z,19.70
2023-05-15T05:17:45.930Z,19.80
2023-05-15T05:20:15.432Z,20.00
2023-05-15T05:22:43.298Z,20.00
2023-05-15T05:25:11.473Z,20.00
2023-05-15T05:27:39.348Z,20.00
2023-05-15T05:30:13.676Z,20.00
2023-05-15T05:32:41.645Z,19.80
2023-05-15T05:35:10.256Z,19.80
2023-05-15T05:37:41.246Z,19.80
2023-05-15T05:40:13.064Z,19.90
2023-05-15T05:42:40.909Z,19.80
2023-05-15T05:45:12.594Z,19.80
2023-05-15T05:47:43.557Z,19.80
2023-05-15T05:50:11.874Z,19.90
2023-05-15T05:52:41.123Z,20.00
2023-05-15T05:55:10.063Z,20.10
2023-05-15T05:57:40.789Z,20.00
2023-05-15T06:00:12.949Z,20.10
2023-05-15T06:02:41.664Z,20.10
2023-05-15T06:05:25.485Z,20.20
2023-05-15T06:07:55.544Z,20.10
2023-05-15T06:10:23.843Z,20.00
2023-05-15T06:12:52.053Z,19.80
2023-05-15T06:15:20.149Z,19.80
2023-05-15T06:17:56.581Z,19.80
2023-05-15T06:20:24.965Z,19.70
2023-05-15T06:22:59.902Z,20.00
2023-05-15T06:25:27.798Z,20.10
2023-05-15T06:27:58.476Z,20.10
2023-05-15T06:30:26.552Z,20.10
2023-05-15T06:33:00.741Z,20.10
2023-05-15T06:35:28.914Z,20.30
2023-05-15T06:37:58.610Z,20.40
2023-05-15T06:40:26.914Z,20.30
2023-05-15T06:42:58.700Z,20.40
2023-05-15T06:45:27.131Z,20.20
2023-05-15T06:47:59.941Z,20.30
2023-05-15T06:50:31.434Z,20.20
2023-05-15T06:53:01.214Z,20.10
2023-05-15T06:55:34.062Z,20.00
2023-05-15T06:58:04.243Z,20.00
2023-05-15T07:00:33.573Z,19.90
2023-05-15T07:03:01.496Z,19.90
2023-05-15T07:05:29.457Z,19.80
2023-05-15T07:07:57.360Z,19.90
2023-05-15T07:10:26.861Z,20.00
2023-05-15T07:13:00.975Z,20.00
2023-05-15T07:15:28.897Z,20.00
2023-05-15T07:17:56.863Z,20.20
2023-05-15T07:20:28.210Z,20.20
2023-05-15T07:23:00.482Z,20.20
2023-05-15T07:25:32.404Z,20.10
2023-05-15T07:28:00.302Z,20.00
2023-05-15T07:30:28.350Z,19.80
2023-05-15T07:32:59.267Z,19.60
2023-05-15T07:35:27.356Z,19.50
2023-05-15T07:37:58.531Z,19.30
2023-05-15T07:40:26.427Z,19.20
2023-05-15T07:42:55.766Z,19.10
2023-05-15T07:45:23.969Z,19.10
2023-05-15T07:47:52.195Z,19.20
2023-05-15T07:50:22.281Z,19.30
2023-05-15T07:52:53.298Z,19.30
2023-05-15T07:55:21.238Z,19.20
2023-05-15T07:57:53.768Z,18.90
2023-05-15T08:00:26.611Z,18.70
2023-05-15T08:02:54.571Z,18.60
2023-05-15T08:05:25.626Z,18.70
2023-05-15T08:07:56.958Z,18.50
2023-05-15T08:10:25.134Z,18.70
2023-05-15T08:12:55.343Z,18.60
2023-05-15T08:15:23.981Z,18.50
2023-05-15T08:17:53.439Z,18.50
2023-05-15T08:20:21.374Z,18.70
2023-05-15T08:22:49.228Z,19.00
2023-05-15T08:25:20.120Z,19.50
2023-05-15T08:27:47.964Z,19.60
2023-05-15T08:30:16.490Z,19.40
2023-05-15T08:32:45.885Z,19.60
2023-05-15T08:35:15.270Z,19.60
2023-05-15T08:37:43.188Z,19.60
2023-05-15T08:40:18.597Z,19.60
2023-05-15T08:42:53.885Z,20.00
2023-05-15T08:45:22.246Z,20.20
2023-05-15T08:47:50.330Z,20.30
2023-05-15T08:50:21.114Z,20.30
2023-05-15T08:52:50.360Z,20.60
2023-05-15T08:55:24.016Z,20.70
2023-05-15T08:57:55.494Z,20.80
2023-05-15T09:00:23.984Z,20.90
2023-05-15T09:02:51.977Z,20.80
2023-05-15T09:05:21.496Z,20.70
2023-05-15T09:07:50.293Z,20.80
2023-05-15T09:10:18.301Z,20.90
2023-05-15T09:12:46.616Z,20.70
2023-05-15T09:15:17.808Z,20.70
2023-05-15T09:17:46.505Z,20.80
2023-05-15T09:20:29.480Z,20.80
2023-05-15T09:22:58.344Z,20.80
2023-05-15T09:25:44.830Z,20.50
2023-05-15T09:28:27.340Z,20.50
2023-05-15T09:31:01.037Z,20.30
2023-05-15T09:33:30.366Z,20.10
2023-05-15T09:35:59.693Z,19.80
2023-05-15T09:38:27.687Z,19.90
2023-05-15T09:41:06.136Z,19.90
2023-05-15T09:43:39.193Z,20.00
2023-05-15T09:46:08.184Z,20.10
2023-05-15T09:48:42.057Z,20.00
2023-05-15T09:51:17.871Z,20.00
2023-05-15T09:53:53.244Z,20.00
2023-05-15T09:56:26.109Z,20.10
2023-05-15T09:58:55.934Z,20.20
2023-05-15T10:01:25.041Z,20.30
2023-05-15T10:04:07.092Z,20.40
2023-05-15T10:06:42.756Z,20.40
2023-05-15T10:09:11.768Z,20.50
2023-05-15T10:11:44.340Z,20.50
2023-05-15T10:14:19.503Z,20.30
2023-05-15T10:16:48.189Z,20.40
2023-05-15T10:19:18.423Z,20.20
2023-05-15T10:21:48.664Z,20.40
2023-05-15T10:24:20.989Z,20.50
2023-05-15T10:26:50.083Z,20.50
2023-05-15T10:29:21.196Z,20.50
2023-05-15T10:31:50.636Z,20.60
2023-05-15T10:34:22.079Z,20.50
2023-05-15T10:36:54.658Z,20.30
2023-05-15T10:39:23.267Z,20.60
2023-05-15T10:41:52.080Z,20.70
2023-05-15T10:44:24.436Z,20.60
2023-05-15T10:46:52.884Z,20.60
2023-05-15T10:49:20.817Z,20.60
2023-05-15T10:51:48.714Z,20.90
2023-05-15T10:54:17.955Z,20.90
2023-05-15T10:56:52.020Z,21.00
2023-05-15T10:59:41.359Z,21.00
2023-05-15T11:02:23.460Z,21.00
2023-05-15T11:04:58.623Z,21.00
2023-05-15T11:07:27.558Z,20.90
2023-05-15T11:10:39.294Z,21.10
2023-05-15T11:13:11.845Z,21.20
2023-05-15T11:15:43.833Z,21.30
2023-05-15T11:18:11.800Z,21.20
2023-05-15T11:21:00.983Z,21.40
2023-05-15T11:23:28.873Z,21.40
2023-05-15T11:25:58.619Z,21.50
2023-05-15T11:28:41.806Z,21.60
2023-05-15T11:31:12.745Z,21.90
2023-05-15T11:33:43.911Z,22.00
2023-05-15T11:36:16.041Z,22.00
2023-05-15T11:38:44.856Z,22.00
2023-05-15T11:41:27.486Z,21.90
2023-05-15T11:43:55.376Z,21.70
2023-05-15T11:46:31.690Z,21.60
2023-05-15T11:49:02.906Z,21.50
2023-05-15T11:54:25.826Z,21.30
2023-05-15T11:56:58.533Z,21.60
2023-05-15T11:59:31.928Z,21.80
2023-05-15T12:02:00.950Z,22.00
2023-05-15T12:04:28.848Z,22.00
2023-05-15T12:06:56.779Z,22.20
2023-05-15T12:09:27.227Z,22.40
2023-05-15T12:11:57.049Z,22.60
2023-05-15T12:14:28.927Z,22.40
2023-05-15T12:17:02.741Z,22.40
2023-05-15T12:19:34.317Z,22.20
2023-05-15T12:22:02.169Z,22.20
2023-05-15T12:24:30.083Z,22.40
2023-05-15T12:27:03.766Z,22.30
2023-05-15T12:29:31.979Z,22.20
2023-05-15T12:32:02.708Z,22.30
2023-05-15T12:34:30.936Z,22.40
2023-05-15T12:36:59.718Z,22.30
2023-05-15T12:39:30.684Z,22.30
2023-05-15T12:42:00.700Z,22.40
2023-05-15T12:44:31.900Z,22.20
2023-05-15T12:46:59.980Z,22.50
2023-05-15T12:49:29.110Z,22.40
2023-05-15T12:51:56.968Z,22.60
2023-05-15T12:54:25.580Z,22.70
2023-05-15T12:56:54.334Z,22.50
2023-05-15T12:59:31.108Z,21.90
2023-05-15T13:01:59.010Z,21.90
2023-05-15T13:04:27.136Z,21.70
2023-05-15T13:06:55.243Z,21.70
2023-05-15T13:09:23.695Z,21.90
2023-05-15T13:11:51.593Z,22.10
2023-05-15T13:14:19.685Z,22.00
2023-05-15T13:16:49.128Z,22.10
2023-05-15T13:19:17.719Z,22.20
2023-05-15T13:21:51.810Z,22.50
2023-05-15T13:24:22.918Z,22.40
2023-05-15T13:26:56.054Z,22.00
2023-05-15T13:29:23.918Z,21.80
2023-05-15T13:32:03.893Z,21.80
2023-05-15T13:34:37.998Z,21.80
2023-05-15T13:37:06.124Z,21.80
2023-05-15T13:39:33.952Z,22.00
2023-05-15T13:42:07.932Z,22.00
2023-05-15T13:44:37.572Z,22.20
2023-05-15T13:47:07.274Z,22.60
2023-05-15T13:49:35.217Z,22.70
2023-05-15T13:52:04.434Z,22.70
2023-05-15T13:54:32.735Z,22.80
2023-05-15T13:57:03.349Z,22.80
2023-05-15T13:59:34.287Z,22.80
2023-05-15T14:02:06.345Z,22.70
2023-05-15T14:04:34.283Z,22.70
2023-05-15T14:07:02.260Z,22.90
2023-05-15T14:09:30.185Z,23.00
2023-05-15T14:11:58.017Z,22.70
2023-05-15T14:14:25.924Z,22.60
2023-05-15T14:16:53.856Z,22.80
2023-05-15T14:19:23.185Z,23.00
2023-05-15T14:21:54.145Z,23.20
2023-05-15T14:24:25.094Z,23.00
2023-05-15T14:26:52.956Z,22.90
2023-05-15T14:29:20.818Z,23.10
2023-05-15T14:31:50.882Z,23.40
2023-05-15T14:34:19.976Z,23.80
2023-05-15T14:36:52.705Z,23.70
2023-05-15T14:39:20.567Z,23.70
2023-05-15T14:41:49.349Z,23.70
2023-05-15T14:44:24.548Z,23.40
2023-05-15T14:47:09.110Z,23.20
2023-05-15T14:49:37.784Z,23.30
2023-05-15T14:52:08.833Z,23.50
2023-05-15T14:54:37.222Z,23.50
2023-05-15T14:57:05.388Z,23.40
2023-05-15T14:59:35.525Z,23.30
2023-05-15T15:02:03.575Z,22.40
2023-05-15T15:04:34.251Z,21.90
2023-05-15T15:07:04.941Z,21.80
2023-05-15T15:09:34.120Z,21.90
2023-05-15T15:12:02.027Z,21.50
2023-05-15T15:14:37.957Z,21.20
2023-05-15T15:17:08.582Z,21.10
2023-05-15T15:19:36.479Z,20.90
2023-05-15T15:22:04.439Z,20.80
2023-05-15T15:24:33.653Z,20.80
2023-05-15T15:27:03.719Z,20.90
2023-05-15T15:29:31.585Z,21.00
2023-05-15T15:31:59.498Z,21.10
2023-05-15T15:34:27.384Z,21.30
2023-05-15T15:37:02.444Z,21.60
2023-05-15T15:39:30.350Z,22.10
2023-05-15T15:42:04.549Z,22.30
2023-05-15T15:44:37.118Z,22.00
2023-05-15T15:47:05.441Z,22.20
2023-05-15T15:49:33.322Z,22.50
2023-05-15T15:52:01.239Z,22.20
2023-05-15T15:54:30.221Z,22.30
2023-05-15T15:57:02.294Z,22.40
2023-05-15T15:59:33.004Z,21.80
2023-05-15T16:02:00.848Z,21.60
2023-05-15T16:04:28.683Z,21.90
2023-05-15T16:06:56.693Z,21.70
2023-05-15T16:09:24.604Z,21.40
2023-05-15T16:11:52.572Z,21.50
2023-05-15T16:14:22.351Z,21.60
2023-05-15T16:16:50.409Z,21.90
2023-05-15T16:19:18.428Z,22.30
2023-05-15T16:21:46.339Z,22.50
2023-05-15T16:24:14.262Z,22.50
2023-05-15T16:26:42.229Z,22.40
2023-05-15T16:29:10.162Z,22.50
2023-05-15T16:31:41.793Z,22.30
2023-05-15T16:34:13.109Z,22.30
2023-05-15T16:36:44.341Z,22.20
2023-05-15T16:39:15.200Z,22.10
2023-05-15T16:41:45.313Z,22.40
2023-05-15T16:44:22.353Z,22.50
2023-05-15T16:46:51.719Z,22.60
2023-05-15T16:49:19.713Z,22.70
2023-05-15T16:51:47.568Z,22.60
2023-05-15T16:54:24.111Z,22.30
2023-05-15T16:56:59.392Z,22.30
2023-05-15T16:59:30.186Z,22.20
2023-05-15T17:01:59.874Z,22.20
2023-05-15T17:04:28.160Z,22.40
2023-05-15T17:06:57.026Z,22.60
2023-05-15T17:09:24.900Z,22.80
2023-05-15T17:11:52.813Z,22.70
2023-05-15T17:14:25.957Z,22.60
2023-05-15T17:16:55.951Z,22.80
2023-05-15T17:19:25.368Z,23.10
2023-05-15T17:21:53.620Z,23.10
2023-05-15T17:24:21.457Z,23.00
2023-05-15T17:26:51.787Z,23.00
2023-05-15T17:29:22.722Z,23.00
2023-05-15T17:31:53.678Z,23.10
2023-05-15T17:34:28.333Z,23.30
2023-05-15T17:36:56.219Z,23.60
2023-05-15T17:39:24.148Z,23.90
2023-05-15T17:41:52.092Z,24.10
2023-05-15T17:44:27.814Z,24.20
2023-05-15T17:46:55.798Z,24.20
2023-05-15T17:49:25.081Z,24.30
2023-05-15T17:51:55.922Z,24.30
2023-05-15T17:54:23.768Z,24.10
2023-05-15T17:56:51.611Z,24.20
2023-05-15T17:59:36.540Z,24.00
2023-05-15T18:02:07.675Z,23.80
2023-05-15T18:04:36.900Z,23.40
2023-05-15T18:07:10.740Z,23.20
2023-05-15T18:09:39.519Z,23.10
2023-05-15T18:12:10.983Z,22.60
2023-05-15T18:14:40.419Z,22.30
2023-05-15T18:17:08.394Z,22.20
2023-05-15T18:19:43.870Z,22.20
2023-05-15T18:22:16.458Z,21.80
2023-05-15T18:24:47.332Z,21.90
2023-05-15T18:27:15.190Z,22.20
2023-05-15T18:29:49.431Z,22.10
2023-05-15T18:32:23.309Z,22.30
2023-05-15T18:34:52.573Z,22.40
2023-05-15T18:37:20.421Z,22.50
2023-05-15T18:39:48.281Z,22.30
2023-05-15T18:42:19.302Z,22.40
2023-05-15T18:44:47.180Z,22.50
2023-05-15T18:47:18.183Z,22.30
2023-05-15T18:49:51.249Z,22.20
2023-05-15T18:52:21.299Z,22.30
2023-05-15T18:55:01.423Z,22.50
2023-05-15T18:57:35.452Z,22.60
2023-05-15T19:00:03.585Z,22.60
2023-05-15T19:02:33.968Z,22.90
2023-05-15T19:05:02.073Z,23.10
2023-05-15T19:07:31.420Z,23.30
2023-05-15T19:10:02.309Z,23.30
2023-05-15T19:12:33.276Z,23.40
2023-05-15T19:15:01.649Z,23.50
2023-05-15T19:17:32.610Z,23.50
2023-05-15T19:20:00.509Z,23.50
2023-05-15T19:22:33.208Z,23.50
2023-05-15T19:25:01.083Z,23.40
2023-05-15T19:27:31.956Z,23.50
2023-05-15T19:30:03.105Z,23.50
2023-05-15T19:32:31.057Z,23.50
2023-05-15T19:34:58.956Z,23.60
2023-05-15T19:37:26.915Z,23.60
2023-05-15T19:39:56.152Z,23.70
2023-05-15T19:42:24.016Z,23.70
2023-05-15T19:44:51.908Z,23.60
2023-05-15T19:47:21.962Z,23.50
2023-05-15T19:49:53.252Z,23.40
2023-05-15T19:52:21.149Z,23.50
2023-05-15T19:55:03.740Z,23.50
2023-05-15T19:57:34.751Z,23.50
2023-05-15T20:00:05.874Z,23.40
2023-05-15T20:02:41.158Z,23.40
2023-05-15T20:05:15.716Z,23.40
2023-05-15T20:07:52.910Z,23.40
2023-05-15T20:10:20.980Z,23.30
2023-05-15T20:12:49.131Z,23.20
2023-05-15T20:15:19.767Z,22.90
2023-05-15T20:17:47.666Z,22.90
2023-05-15T20:20:16.585Z,22.80
2023-05-15T20:22:45.862Z,22.80
2023-05-15T20:25:18.182Z,22.80
2023-05-15T20:28:01.201Z,22.80
2023-05-15T20:30:35.023Z,22.90
2023-05-15T20:33:09.289Z,23.00
2023-05-15T20:35:51.145Z,23.00
2023-05-15T20:38:21.582Z,23.00
2023-05-15T20:40:50.856Z,22.80
2023-05-15T20:43:21.058Z,22.80
2023-05-15T20:45:51.879Z,22.80
2023-05-15T20:48:22.536Z,22.80
2023-05-15T20:50:54.058Z,22.80
2023-05-15T20:53:28.784Z,22.70
2023-05-15T20:56:01.313Z,22.80
2023-05-15T20:58:29.154Z,22.60
2023-05-15T21:01:03.168Z,22.70
2023-05-15T21:03:31.122Z,22.60
2023-05-15T21:05:59.109Z,22.60
2023-05-15T21:08:30.050Z,22.60
2023-05-15T21:10:57.913Z,22.60
2023-05-15T21:13:29.505Z,22.40
2023-05-15T21:15:57.460Z,22.50
2023-05-15T21:18:25.535Z,22.30
2023-05-15T21:20:56.434Z,22.10
2023-05-15T21:23:26.460Z,22.00
2023-05-15T21:25:54.590Z,22.10
2023-05-15T21:28:22.461Z,22.30
2023-05-15T21:30:54.828Z,22.30
2023-05-15T21:33:25.104Z,22.30
2023-05-15T21:35:53.060Z,22.30
2023-05-15T21:38:20.937Z,22.40
2023-05-15T21:40:48.833Z,22.30
2023-05-15T21:43:16.729Z,22.20
2023-05-15T21:45:47.725Z,22.20
2023-05-15T21:48:22.614Z,22.20
2023-05-15T21:50:50.729Z,22.20
2023-05-15T21:53:23.905Z,22.10
2023-05-15T21:55:55.467Z,22.10
2023-05-15T21:58:25.744Z,22.10
2023-05-15T22:01:00.838Z,22.20
2023-05-15T22:03:55.582Z,22.20
2023-05-15T22:06:29.241Z,22.20
2023-05-15T22:09:00.171Z,22.20
2023-05-15T22:11:30.975Z,22.20
2023-05-15T22:13:58.832Z,22.20
2023-05-15T22:16:42.010Z,22.10
2023-05-15T22:19:28.865Z,22.10
2023-05-15T22:22:00.041Z,22.20
2023-05-15T22:24:27.981Z,22.10
2023-05-15T22:26:55.843Z,22.10
2023-05-15T22:29:31.800Z,22.00
2023-05-15T22:31:59.830Z,22.10
2023-05-15T22:34:32.175Z,22.00
2023-05-15T22:37:00.057Z,22.00
2023-05-15T22:39:27.915Z,22.00
2023-05-15T22:41:58.731Z,22.00
2023-05-15T22:44:29.572Z,22.00
2023-05-15T22:47:00.592Z,21.90
2023-05-15T22:49:33.015Z,21.90
2023-05-15T22:52:05.273Z,21.70
2023-05-15T22:54:39.161Z,21.60
2023-05-15T22:57:07.103Z,21.70
2023-05-15T22:59:44.450Z,21.60
2023-05-15T23:02:24.448Z,21.70
2023-05-15T23:04:56.799Z,21.70
2023-05-15T23:07:27.876Z,21.60
2023-05-15T23:10:04.932Z,21.20
2023-05-15T23:12:32.832Z,21.10
2023-05-15T23:15:00.701Z,20.80
2023-05-15T23:17:31.820Z,20.40
2023-05-15T23:20:10.380Z,20.30
2023-05-15T23:22:40.749Z,19.80
2023-05-15T23:25:14.814Z,19.80
2023-05-15T23:27:42.749Z,19.60
2023-05-15T23:30:11.248Z,18.90
2023-05-15T23:32:41.908Z,18.30
2023-05-15T23:35:11.443Z,18.00
2023-05-15T23:37:47.983Z,17.80
2023-05-15T23:40:15.983Z,17.90
2023-05-15T23:42:51.270Z,17.90
2023-05-15T23:45:19.325Z,17.90
2023-05-15T23:47:47.427Z,17.90
2023-05-15T23:50:16.848Z,18.10
2023-05-15T23:52:50.509Z,18.00
2023-05-15T23:55:18.564Z,17.90
2023-05-15T23:58:03.452Z,17.70
